Time;durP1;ratioP1;P1;durP2;ratioP2;P2;SDS_P1;SDS_P2;PMS_P1;PMS_P2;Temp;Humidity;BMP_temperature;BMP_pressure;BME280_temperature;BME280_humidity;BME280_pressure;Samples;Min_cycle;Max_cycle;Signal;HPM_P1;HPM_P2
2021/06/26 00:01:36;;;;;;;3.47;3.15;;;14.70;99.90;;;;;;5034149;28;20056;-69
2021/06/26 00:04:03;;;;;;;3.00;2.80;;;14.80;99.90;;;;;;5034137;28;20533;-66
2021/06/26 00:06:33;;;;;;;3.25;3.05;;;14.90;99.90;;;;;;5034180;28;20018;-66
2021/06/26 00:09:01;;;;;;;3.58;2.80;;;14.90;99.90;;;;;;5032834;28;20450;-66
2021/06/26 00:11:28;;;;;;;2.42;2.33;;;15.00;99.90;;;;;;5032670;28;20029;-66
2021/06/26 00:13:56;;;;;;;2.50;2.40;;;15.10;99.90;;;;;;5033949;28;20079;-66
2021/06/26 00:16:23;;;;;;;2.95;2.70;;;15.20;99.90;;;;;;5033898;28;20104;-66
2021/06/26 00:18:51;;;;;;;4.43;2.70;;;15.20;99.40;;;;;;5033769;28;20029;-66
2021/06/26 00:21:18;;;;;;;2.63;2.30;;;15.10;99.20;;;;;;5033787;28;20483;-65
2021/06/26 00:23:49;;;;;;;2.50;2.40;;;15.10;99.30;;;;;;5033960;28;20048;-67
2021/06/26 00:26:17;;;;;;;3.05;2.50;;;15.20;99.20;;;;;;5033631;28;20367;-64
2021/06/26 00:28:46;;;;;;;2.60;2.40;;;15.20;98.80;;;;;;5033613;28;20071;-66
2021/06/26 00:31:13;;;;;;;2.67;2.47;;;15.10;98.80;;;;;;5033556;28;20032;-64
2021/06/26 00:33:42;;;;;;;2.80;2.70;;;15.30;98.40;;;;;;5033569;28;20017;-65
2021/06/26 00:36:10;;;;;;;2.40;2.30;;;15.20;98.50;;;;;;5033544;28;20021;-66
2021/06/26 00:38:39;;;;;;;3.10;2.97;;;15.30;98.60;;;;;;5033399;28;20093;-69
2021/06/26 00:41:06;;;;;;;2.70;2.50;;;15.20;98.20;;;;;;5033359;28;20109;-67
2021/06/26 00:43:34;;;;;;;3.00;2.90;;;15.30;98.40;;;;;;5033396;28;20083;-68
2021/06/26 00:46:02;;;;;;;4.22;2.80;;;15.30;98.80;;;;;;5032101;28;20079;-65
2021/06/26 00:48:29;;;;;;;2.70;2.50;;;15.40;97.90;;;;;;5032092;28;20021;-66
2021/06/26 00:50:57;;;;;;;2.90;2.70;;;15.40;98.10;;;;;;5033327;28;20382;-66
2021/06/26 00:53:24;;;;;;;2.50;2.30;;;15.40;98.10;;;;;;5032799;28;20147;-66
2021/06/26 00:55:52;;;;;;;2.40;2.30;;;15.50;98.00;;;;;;5033067;28;20132;-66
2021/06/26 00:58:24;;;;;;;2.80;2.60;;;15.60;98.30;;;;;;5033158;28;20022;-67
2021/06/26 01:00:54;;;;;;;2.50;2.30;;;15.60;98.00;;;;;;5032964;28;20513;-67
2021/06/26 01:03:22;;;;;;;2.83;2.63;;;15.60;98.10;;;;;;5033043;28;20382;-67
2021/06/26 01:05:50;;;;;;;2.67;2.58;;;15.70;98.30;;;;;;5033170;28;20018;-67
2021/06/26 01:08:18;;;;;;;2.67;2.40;;;15.60;98.10;;;;;;5031700;28;20021;-67
2021/06/26 01:10:45;;;;;;;2.47;2.20;;;;;;;;;;5033038;28;20033;-67
2021/06/26 01:13:12;;;;;;;2.30;2.20;;;;;;;;;;5033011;28;20085;-67
2021/06/26 01:15:39;;;;;;;2.60;2.40;;;;;;;;;;5032944;28;20029;-68
2021/06/26 01:18:06;;;;;;;2.53;2.42;;;;;;;;;;5032855;28;20021;-66
2021/06/26 01:20:34;;;;;;;2.55;2.33;;;;;;;;;;5032755;28;20032;-65
2021/06/26 01:23:02;;;;;;;2.65;2.45;;;;;;;;;;5031443;28;20025;-66
2021/06/26 01:25:30;;;;;;;2.50;2.40;;;;;;;;;;5032842;28;20029;-66
2021/06/26 01:27:59;;;;;;;2.72;2.53;;;;;;;;;;5032918;28;20013;-58
2021/06/26 01:30:28;;;;;;;2.58;2.38;;;;;;;;;;5032973;28;20051;-59
2021/06/26 01:32:55;;;;;;;2.70;2.60;;;;;;;;;;5032649;28;20026;-59
2021/06/26 01:35:22;;;;;;;2.70;2.60;;;;;;;;;;5032748;28;20036;-59
2021/06/26 01:37:49;;;;;;;2.70;2.50;;;;;;;;;;5032487;28;20050;-58
2021/06/26 01:40:18;;;;;;;2.83;2.70;;;;;;;;;;5032510;28;20112;-58
2021/06/26 01:42:46;;;;;;;2.95;2.80;;;;;;;;;;5032488;28;20021;-59
2021/06/26 01:45:14;;;;;;;3.83;2.78;;;;;;;;;;5032401;28;20123;-58
2021/06/26 01:47:47;;;;;;;2.97;2.88;;;;;;;;;;5032388;28;20025;-58
2021/06/26 01:50:15;;;;;;;3.00;2.80;;;;;;;;;;5032504;28;20394;-58
2021/06/26 01:52:43;;;;;;;3.40;2.95;;;;;;;;;;5032428;28;20451;-59
2021/06/26 01:55:12;;;;;;;2.67;2.47;;;;;;;;;;5032133;28;20585;-59
2021/06/26 01:57:39;;;;;;;2.60;2.50;;;;;;;;;;5032472;28;20479;-58
2021/06/26 02:00:06;;;;;;;3.00;2.70;;;;;;;;;;5032504;28;20502;-58
2021/06/26 02:02:34;;;;;;;2.80;2.60;;;;;;;;;;5032225;28;20146;-59
2021/06/26 02:05:01;;;;;;;2.85;2.70;;;;;;;;;;5034423;28;20026;-59
2021/06/26 02:07:28;;;;;;;2.72;2.60;;;;;;;;;;5036227;28;20395;-58
2021/06/26 02:09:55;;;;;;;2.72;2.58;;;;;;;;;;5036064;28;20026;-58
2021/06/26 02:12:22;;;;;;;2.80;2.70;;;;;;;;;;5036132;28;20405;-58
2021/06/26 02:14:52;;;;;;;2.70;2.60;;;;;;;;;;5036163;28;20026;-57
2021/06/26 02:17:20;;;;;;;2.67;2.50;;;;;;;;;;5036380;28;20109;-57
2021/06/26 02:19:48;;;;;;;2.35;2.25;;;;;;;;;;5035855;28;20033;-57
2021/06/26 02:22:15;;;;;;;2.10;2.00;;;;;;;;;;5035859;28;20429;-58
2021/06/26 02:24:43;;;;;;;2.83;2.72;;;;;;;;;;5035848;28;20025;-59
2021/06/26 02:27:10;;;;;;;2.67;2.58;;;;;;;;;;5035847;28;20092;-59
2021/06/26 02:29:37;;;;;;;2.50;2.40;;;;;;;;;;5035815;28;20048;-57
2021/06/26 02:32:05;;;;;;;2.80;2.70;;;;;;;;;;5035921;28;20025;-58
2021/06/26 02:34:33;;;;;;;2.70;2.60;;;;;;;;;;5035793;28;20029;-59
2021/06/26 02:37:00;;;;;;;2.80;2.60;;;;;;;;;;5035759;28;20034;-60
2021/06/26 02:39:27;;;;;;;2.90;2.80;;;;;;;;;;5035625;28;20112;-60
2021/06/26 02:41:54;;;;;;;2.80;2.70;;;;;;;;;;5035581;28;20014;-60
2021/06/26 02:44:22;;;;;;;2.95;2.85;;;;;;;;;;5035680;28;20522;-59
2021/06/26 02:46:50;;;;;;;2.95;2.80;;;;;;;;;;5035518;28;20053;-59
2021/06/26 02:49:18;;;;;;;2.78;2.60;;;;;;;;;;5035498;28;20390;-59
2021/06/26 02:51:45;;;;;;;3.00;2.80;;;;;;;;;;5035301;28;20029;-59
2021/06/26 02:54:13;;;;;;;2.70;2.50;;;;;;;;;;5035079;28;20042;-59
2021/06/26 02:56:40;;;;;;;2.90;2.80;;;;;;;;;;5035221;28;20093;-58
2021/06/26 02:59:07;;;;;;;2.83;2.70;;;;;;;;;;5035136;28;20021;-58
2021/06/26 03:01:34;;;;;;;2.30;2.20;;;;;;;;;;5035473;28;20025;-59
2021/06/26 03:04:01;;;;;;;2.40;2.30;;;;;;;;;;5035130;28;20109;-58
2021/06/26 03:06:29;;;;;;;2.90;2.70;;;;;;;;;;5034833;28;20449;-58
2021/06/26 03:08:56;;;;;;;1.88;1.80;;;;;;;;;;5034837;28;20035;-59
2021/06/26 03:11:23;;;;;;;2.00;1.90;;;;;;;;;;5035093;28;20490;-58
2021/06/26 03:13:50;;;;;;;2.13;2.03;;;;;;;;;;5034867;28;20029;-57
2021/06/26 03:16:17;;;;;;;3.00;2.90;;;;;;;;;;5034534;28;20084;-58
2021/06/26 03:18:45;;;;;;;2.40;2.20;;;;;;;;;;5034808;28;20097;-59
2021/06/26 03:21:12;;;;;;;2.20;2.10;;;;;;;;;;5034725;28;20026;-57
2021/06/26 03:23:40;;;;;;;2.13;2.03;;;;;;;;;;5034952;28;20025;-57
2021/06/26 03:26:07;;;;;;;2.38;2.28;;;;;;;;;;5035008;28;20030;-58
2021/06/26 03:28:35;;;;;;;2.90;2.70;;;;;;;;;;5034901;28;20049;-59
2021/06/26 03:31:02;;;;;;;2.50;2.40;;;;;;;;;;5034749;28;20482;-59
2021/06/26 03:33:29;;;;;;;2.50;2.40;;;;;;;;;;5034649;28;20394;-59
2021/06/26 03:35:56;;;;;;;2.55;2.20;;;;;;;;;;5034383;28;20030;-58
2021/06/26 03:38:24;;;;;;;2.72;2.60;;;;;;;;;;5034498;28;20110;-60
2021/06/26 03:40:51;;;;;;;2.50;2.38;;;;;;;;;;5034404;28;20022;-59
2021/06/26 03:43:18;;;;;;;2.40;2.30;;;;;;;;;;5034441;28;20060;-59
2021/06/26 03:45:46;;;;;;;2.50;2.40;;;;;;;;;;5034367;28;20049;-58
2021/06/26 03:48:13;;;;;;;2.58;2.47;;;;;;;;;;5034351;28;20034;-58
2021/06/26 03:50:41;;;;;;;2.80;2.70;;;;;;;;;;5034337;28;20534;-58
2021/06/26 03:53:09;;;;;;;2.47;2.38;;;;;;;;;;5034108;28;20034;-58
2021/06/26 03:55:37;;;;;;;2.90;2.80;;;;;;;;;;5034009;28;20104;-59
2021/06/26 03:58:04;;;;;;;2.90;2.80;;;;;;;;;;5034177;28;20025;-59
2021/06/26 04:00:31;;;;;;;3.00;2.75;;;;;;;;;;5032747;28;20143;-58
2021/06/26 04:02:58;;;;;;;2.30;2.20;;;;;;;;;;5034076;28;20036;-59
2021/06/26 04:05:25;;;;;;;2.10;2.00;;;;;;;;;;5034025;28;20075;-59
2021/06/26 04:07:53;;;;;;;3.05;2.90;;;;;;;;;;5034040;28;20080;-57
2021/06/26 04:10:20;;;;;;;2.97;2.88;;;;;;;;;;5034046;28;20026;-59
2021/06/26 04:12:47;;;;;;;2.60;2.50;;;;;;;;;;5033850;28;20398;-59
2021/06/26 04:15:14;;;;;;;2.80;2.70;;;;;;;;;;5033602;28;20021;-57
2021/06/26 04:17:41;;;;;;;3.00;2.80;;;;;;;;;;5033663;28;20029;-59
2021/06/26 04:20:09;;;;;;;2.90;2.70;;;;;;;;;;5032180;28;20501;-59
2021/06/26 04:22:36;;;;;;;3.08;2.97;;;;;;;;;;5033752;28;20653;-56
2021/06/26 04:25:04;;;;;;;3.10;2.80;;;;;;;;;;5033723;28;20025;-58
2021/06/26 04:27:31;;;;;;;2.45;2.35;;;;;;;;;;5032925;28;20025;-57
2021/06/26 04:29:59;;;;;;;3.15;3.00;;;;;;;;;;5033699;28;20312;-58
2021/06/26 04:32:27;;;;;;;2.78;2.67;;;;;;;;;;5033400;28;20072;-58
2021/06/26 04:34:54;;;;;;;3.20;3.00;;;;;;;;;;5033440;28;20100;-59
2021/06/26 04:37:21;;;;;;;2.60;2.50;;;;;;;;;;5033477;28;20053;-59
2021/06/26 04:39:49;;;;;;;2.60;2.50;;;;;;;;;;5033229;28;20034;-59
2021/06/26 04:42:16;;;;;;;2.75;2.58;;;;;;;;;;5033333;28;20389;-58
2021/06/26 04:44:43;;;;;;;3.00;2.80;;;;;;;;;;5033106;28;20104;-59
2021/06/26 04:47:10;;;;;;;2.55;2.45;;;;;;;;;;5033157;28;20454;-57
2021/06/26 04:49:38;;;;;;;2.50;2.40;;;;;;;;;;5033231;28;20367;-58
2021/06/26 04:52:05;;;;;;;2.60;2.50;;;;;;;;;;5033290;28;20030;-57
2021/06/26 04:54:32;;;;;;;2.50;2.40;;;;;;;;;;5032898;28;20041;-58
2021/06/26 04:56:59;;;;;;;2.60;2.50;;;;;;;;;;5033191;28;20018;-59
2021/06/26 04:59:27;;;;;;;2.83;2.60;;;;;;;;;;5032976;28;20052;-57
2021/06/26 05:01:54;;;;;;;3.08;2.88;;;;;;;;;;5033065;28;20024;-59
2021/06/26 05:04:21;;;;;;;2.58;2.30;;;;;;;;;;5033153;28;20036;-58
2021/06/26 05:06:49;;;;;;;2.58;2.45;;;;;;;;;;5033091;28;20024;-58
2021/06/26 05:09:16;;;;;;;2.85;2.75;;;;;;;;;;5032761;28;20459;-58
2021/06/26 05:11:43;;;;;;;2.60;2.50;;;;;;;;;;5032823;28;20490;-58
2021/06/26 05:14:11;;;;;;;2.80;2.70;;;;;;;;;;5033033;28;20026;-58
2021/06/26 05:16:42;;;;;;;2.83;2.72;;;;;;;;;;5032925;28;20032;-59
2021/06/26 05:19:09;;;;;;;3.00;2.80;;;;;;;;;;5032879;28;20025;-58
2021/06/26 05:21:37;;;;;;;2.92;2.50;;;;;;;;;;5032732;28;20022;-58
2021/06/26 05:24:04;;;;;;;2.90;2.70;;;;;;;;;;5032908;28;20097;-58
2021/06/26 05:26:32;;;;;;;2.58;2.47;;;;;;;;;;5032765;28;20033;-58
2021/06/26 05:28:59;;;;;;;2.40;2.30;;;;;;;;;;5032472;28;20022;-57
2021/06/26 05:31:26;;;;;;;2.83;2.63;;;;;;;;;;5032627;28;20036;-57
2021/06/26 05:33:53;;;;;;;2.80;2.60;;;;;;;;;;5032563;28;20025;-52
2021/06/26 05:36:20;;;;;;;2.50;2.40;;;;;;;;;;5032462;28;20026;-58
2021/06/26 05:38:47;;;;;;;2.70;2.50;;;;;;;;;;5034530;28;20382;-56
2021/06/26 05:41:14;;;;;;;2.90;2.63;;;;;;;;;;5036805;28;20040;-57
2021/06/26 05:43:42;;;;;;;2.63;2.50;;;;;;;;;;5036603;28;20482;-56
2021/06/26 05:46:09;;;;;;;2.40;2.30;;;;;;;;;;5036455;28;20553;-57
2021/06/26 05:48:36;;;;;;;2.30;2.20;;;;;;;;;;5036573;28;20037;-58
2021/06/26 05:51:03;;;;;;;2.95;2.70;;;;;;;;;;5036462;28;20104;-57
2021/06/26 05:53:31;;;;;;;2.58;2.40;;;;;;;;;;5035438;28;20021;-57
2021/06/26 05:56:01;;;;;;;2.45;2.35;;;;;;;;;;5036133;28;20522;-58
2021/06/26 05:58:33;;;;;;;6.85;6.25;;;;;;;;;;5036182;28;20021;-57
2021/06/26 06:01:01;;;;;;;2.60;2.50;;;;;;;;;;5036197;28;20037;-58
2021/06/26 06:03:28;;;;;;;2.53;2.42;;;;;;;;;;5036414;28;20140;-58
2021/06/26 06:05:55;;;;;;;2.80;2.60;;;;;;;;;;5036405;28;20037;-58
2021/06/26 06:08:22;;;;;;;2.50;2.40;;;;;;;;;;5036244;28;20470;-59
2021/06/26 06:10:50;;;;;;;3.13;2.90;;;;;;;;;;5036106;28;20029;-59
2021/06/26 06:13:18;;;;;;;2.80;2.70;;;;;;;;;;5036184;28;20045;-59
2021/06/26 06:15:45;;;;;;;2.60;2.50;;;;;;;;;;5036170;28;20439;-58
2021/06/26 06:18:13;;;;;;;2.90;2.80;;;;;;;;;;5036081;28;20068;-59
2021/06/26 06:20:41;;;;;;;3.00;2.80;;;;;;;;;;5035738;28;20021;-58
2021/06/26 06:23:08;;;;;;;11.98;10.98;;;;;;;;;;5036015;28;20032;-58
2021/06/26 06:25:35;;;;;;;3.10;2.85;;;;;;;;;;5035954;28;20033;-59
2021/06/26 06:28:03;;;;;;;2.80;2.70;;;;;;;;;;5035732;28;20043;-59
2021/06/26 06:30:31;;;;;;;2.65;2.55;;;;;;;;;;5035973;28;20050;-60
2021/06/26 06:33:01;;;;;;;2.40;2.25;;;;;;;;;;5035859;28;20038;-59
2021/06/26 06:35:29;;;;;;;2.58;2.45;;;;;;;;;;5035933;28;20029;-59
2021/06/26 06:37:56;;;;;;;4.50;4.20;;;;;;;;;;5035847;28;20029;-60
2021/06/26 06:40:23;;;;;;;3.90;3.65;;;;;;;;;;5035647;28;20034;-59
2021/06/26 06:42:51;;;;;;;2.90;2.70;;;;;;;;;;5035581;28;20032;-60
2021/06/26 06:45:21;;;;;;;2.50;2.40;;;;;;;;;;5034259;28;20029;-60
2021/06/26 06:47:48;;;;;;;2.78;2.58;;;;;;;;;;5035553;28;20386;-61
2021/06/26 06:50:15;;;;;;;2.70;2.55;;;;;;;;;;5034856;28;20087;-60
2021/06/26 06:52:42;;;;;;;2.83;2.63;;;;;;;;;;5035299;28;20087;-60
2021/06/26 06:55:10;;;;;;;3.15;2.95;;;;;;;;;;5035029;28;20060;-60
2021/06/26 06:57:37;;;;;;;2.60;2.40;;;;;;;;;;5035302;28;20033;-59
2021/06/26 07:00:05;;;;;;;3.28;3.03;;;;;;;;;;5035152;28;20036;-59
2021/06/26 07:02:32;;;;;;;2.95;2.75;;;;;;;;;;5035216;28;20028;-60
2021/06/26 07:04:59;;;;;;;3.10;2.90;;;;;;;;;;5035261;28;20030;-60
2021/06/26 07:07:26;;;;;;;3.03;2.72;;;;;;;;;;5035286;28;20100;-61
2021/06/26 07:09:54;;;;;;;2.80;2.60;;;;;;;;;;5035220;28;20168;-61
2021/06/26 07:12:21;;;;;;;4.20;3.80;;;;;;;;;;5033809;28;20049;-61
2021/06/26 07:14:48;;;;;;;3.58;3.35;;;;;;;;;;5035054;28;20126;-60
2021/06/26 07:17:15;;;;;;;4.20;3.90;;;;;;;;;;5035051;28;20029;-61
2021/06/26 07:19:42;;;;;;;3.15;3.05;;;;;;;;;;5034902;28;20034;-60
2021/06/26 07:22:09;;;;;;;4.47;4.28;;;;;;;;;;5035007;28;20022;-61
2021/06/26 07:24:36;;;;;;;3.60;3.35;;;;;;;;;;5034975;28;20104;-62
2021/06/26 07:27:04;;;;;;;3.92;3.72;;;;;;;;;;5034854;28;20025;-62
2021/06/26 07:29:31;;;;;;;4.40;4.05;;;;;;;;;;5034838;28;20516;-61
2021/06/26 07:31:58;;;;;;;3.85;3.65;;;;;;;;;;5034943;28;20025;-62
2021/06/26 07:34:25;;;;;;;3.53;3.33;;;;;;;;;;5034838;28;20025;-60
2021/06/26 07:36:52;;;;;;;3.45;3.25;;;;;;;;;;5034800;28;20502;-62
2021/06/26 07:39:19;;;;;;;3.90;3.70;;;;;;;;;;5033447;28;20029;-61
2021/06/26 07:41:46;;;;;;;4.82;4.47;;;;;;;;;;5034764;28;20025;-61
2021/06/26 07:44:14;;;;;;;4.15;3.85;;;;;;;;;;5034572;28;20025;-62
2021/06/26 07:46:41;;;;;;;4.55;4.15;;;;;;;;;;5034578;28;20102;-59
2021/06/26 07:49:09;;;;;;;4.88;4.43;;;;;;;;;;5034447;28;20018;-59
2021/06/26 07:51:36;;;;;;;4.60;4.40;;;;;;;;;;5034232;28;20119;-59
2021/06/26 07:54:03;;;;;;;4.60;4.40;;;;;;;;;;5034140;28;20025;-59
2021/06/26 07:56:31;;;;;;;5.97;4.80;;;;;;;;;;5034255;28;20032;-58
2021/06/26 07:58:59;;;;;;;5.00;4.65;;;;;;;;;;5034083;28;20044;-58
2021/06/26 08:01:29;;;;;;;13.05;7.72;;;;;;;;;;5033365;28;20045;-59
2021/06/26 08:03:57;;;;;;;6.57;5.97;;;;;;;;;;5032840;28;20027;-58
2021/06/26 08:06:24;;;;;;;4.93;4.60;;;;;;;;;;5033910;28;20048;-59
2021/06/26 08:08:51;;;;;;;4.55;4.20;;;;;;;;;;5034008;28;20421;-59
2021/06/26 08:11:18;;;;;;;5.80;5.10;;;;;;;;;;5033967;28;20075;-59
2021/06/26 08:13:45;;;;;;;4.40;4.20;;;;;;;;;;5033977;28;20045;-58
2021/06/26 08:16:12;;;;;;;4.95;4.53;;;;;;;;;;5034096;28;20025;-58
2021/06/26 08:18:39;;;;;;;4.22;3.95;;;;;;;;;;5034035;28;20411;-59
2021/06/26 08:21:07;;;;;;;5.38;4.88;;;;;;;;;;5033949;28;20036;-59
2021/06/26 08:23:34;;;;;;;4.53;4.28;;;;;;;;;;5033646;28;20390;-59
2021/06/26 08:26:01;;;;;;;4.25;4.05;;;;;;;;;;5033256;28;20445;-55
2021/06/26 08:28:29;;;;;;;4.78;4.30;;;;;;;;;;5032185;28;20122;-59
2021/06/26 08:30:56;;;;;;;6.75;6.13;;;;;;;;;;5033555;28;20024;-59
2021/06/26 08:33:23;;;;;;;5.15;4.85;;;;;;;;;;5033721;28;20547;-60
2021/06/26 08:35:50;;;;;;;5.28;4.90;;;;;;;;;;5033523;28;20036;-61
2021/06/26 08:38:17;;;;;;;4.60;4.30;;;;;;;;;;5033398;28;20029;-60
2021/06/26 08:40:46;;;;;;;5.57;5.18;;;;;;;;;;5033477;28;20374;-59
2021/06/26 08:43:13;;;;;;;5.38;4.97;;;;;;;;;;5033618;28;20386;-60
2021/06/26 08:45:40;;;;;;;5.22;4.88;;;;;;;;;;5033423;28;20076;-60
2021/06/26 08:48:07;;;;;;;6.18;5.78;;;;;;;;;;5033368;28;20029;-58
2021/06/26 08:50:34;;;;;;;6.97;6.47;;;;;;;;;;5033425;28;20072;-59
2021/06/26 08:53:01;;;;;;;5.38;4.97;;;;;;;;;;5033262;28;20043;-60
2021/06/26 08:55:29;;;;;;;5.15;4.85;;;;;;;;;;5033017;28;20053;-59
2021/06/26 08:57:56;;;;;;;6.22;5.72;;;;;;;;;;5033289;28;20049;-59
2021/06/26 09:00:26;;;;;;;8.32;6.70;;;;;;;;;;5033220;28;20032;-59
2021/06/26 09:03:04;;;;;;;12.13;9.73;;;;;;;;;;5033313;28;20025;-59
2021/06/26 09:05:32;;;;;;;6.97;6.25;;;;;;;;;;5033231;28;20033;-60
2021/06/26 09:08:09;;;;;;;7.45;6.78;;;;;;;;;;5033169;28;20066;-59
2021/06/26 09:10:37;;;;;;;6.68;6.07;;;;;;;;;;5033176;28;20084;-59
2021/06/26 09:13:13;;;;;;;6.13;5.63;;;;;;;;;;5032768;28;20033;-58
2021/06/26 09:15:40;;;;;;;6.72;5.97;;;;;;;;;;5032826;28;20553;-60
2021/06/26 09:18:15;;;;;;;6.85;6.13;;;;;;;;;;5033029;28;20026;-60
2021/06/26 09:20:45;;;;;;;5.70;5.22;;;;;;;;;;5032868;28;20445;-60
2021/06/26 09:23:20;;;;;;;5.70;5.30;;;;;;;;;;5032904;28;20025;-59
2021/06/26 09:25:47;;;;;;;5.80;5.32;;;;;;;;;;5032602;28;20041;-59
2021/06/26 09:28:23;;;;;;;6.13;5.63;;;;;;;;;;5032723;28;20021;-59
2021/06/26 09:30:52;;;;;;;7.20;6.50;;;;;;;;;;5032804;28;20391;-59
2021/06/26 09:33:21;;;;;;;5.97;5.38;;;;;;;;;;5032570;28;20101;-59
2021/06/26 09:36:01;;;;;;;5.68;5.20;;;;;;;;;;5032489;28;20029;-60
2021/06/26 09:38:30;;;;;;;7.78;6.95;;;;;;;;;;5032489;28;20554;-58
2021/06/26 09:40:58;;;;;;;6.03;5.55;;;;;;;;;;5032483;28;20155;-59
2021/06/26 09:43:31;;;;;;;7.07;6.38;;;;;;;;;;5032593;28;20114;-59
2021/06/26 09:46:12;;;;;;;7.78;6.32;;;;;;;;;;5032566;28;20029;-58
2021/06/26 09:48:55;;;;;;;7.88;6.93;;;;;;;;;;5032546;28;20049;-59
2021/06/26 09:51:29;;;;;;;5.70;5.20;;;;;;;;;;5032732;28;20071;-59
2021/06/26 09:54:00;;;;;;;5.60;5.20;;;;;;;;;;5030931;28;20033;-59
2021/06/26 09:56:42;;;;;;;5.55;5.15;;;;;;;;;;5032405;28;20457;-59
2021/06/26 09:59:10;;;;;;;6.50;5.97;;;;;;;;;;5032262;28;20482;-58
2021/06/26 10:01:40;;;;;;;6.40;5.88;;;;;;;;;;5032560;28;20385;-60
2021/06/26 10:04:08;;;;;;;6.65;6.10;;;;;;;;;;5032764;28;20030;-59
2021/06/26 10:06:35;;;;;;;5.95;5.55;;;;;;;;;;5032461;28;20046;-61
2021/06/26 10:09:04;;;;;;;6.57;5.97;;;;;;;;;;5032437;28;20390;-58
2021/06/26 10:11:35;;;;;;;6.40;5.90;;;;;;;;;;5032395;28;20024;-60
2021/06/26 10:14:05;;;;;;;6.53;6.03;;;;;;;;;;5032198;28;20021;-60
2021/06/26 10:16:32;;;;;;;6.63;6.03;;;;;;;;;;5032345;28;20025;-60
2021/06/26 10:19:04;;;;;;;6.22;5.60;;;;;;;;;;5031921;28;20259;-57
2021/06/26 10:21:33;;;;;;;6.05;5.57;;;;;;;;;;5030751;28;20398;-58
2021/06/26 10:24:02;;;;;;;6.55;6.05;;;;;;;;;;5032297;28;20018;-57
2021/06/26 10:26:29;;;;;;;7.60;7.00;;;;;;;;;;5034891;28;20021;-59
2021/06/26 10:29:00;;;;;;;6.72;5.57;;;;;;;;;;5035857;28;20033;-59
2021/06/26 10:31:26;;;;;;;;;;;;;;;;;;5036136;28;20080;-59
2021/06/26 10:33:54;;;;;;;5.18;4.88;;;;;;;;;;5035700;28;20019;-59
2021/06/26 10:36:21;;;;;;;6.43;5.80;;;;;;;;;;5035735;28;20419;-59
2021/06/26 10:38:49;;;;;;;6.10;5.70;;;;;;;;;;5035700;28;20021;-53
2021/06/26 10:41:17;;;;;;;7.80;7.05;;;;;;;;;;5034336;28;20399;-58
2021/06/26 10:43:55;;;;;;;6.30;5.68;;;;;;;;;;5035762;28;20084;-58
2021/06/26 10:46:25;;;;;;;6.30;5.80;;;;;;;;;;5035572;28;20088;-56
2021/06/26 10:48:57;;;;;;;11.30;9.18;;;;;;;;;;5033676;28;20025;-56
2021/06/26 10:51:32;;;;;;;10.07;7.00;;;;;;;;;;5035470;28;20076;-57
2021/06/26 10:54:19;;;;;;;6.95;5.70;;;;;;;;;;5035180;28;20033;-56
2021/06/26 10:56:52;;;;;;;6.63;6.03;;;;;;;;;;5034053;28;20029;-56
2021/06/26 10:59:20;;;;;;;6.55;5.95;;;;;;;;;;5035274;28;20030;-57
2021/06/26 11:01:57;;;;;;;6.78;6.25;;;;;;;;;;5035403;28;20048;-57
2021/06/26 11:04:24;;;;;;;6.78;6.28;;;;;;;;;;5035354;28;20026;-57
2021/06/26 11:07:02;;;;;;;6.43;5.90;;;;;;;;;;5035353;28;20475;-56
2021/06/26 11:09:40;;;;;;;6.43;5.93;;;;;;;;;;5035254;28;20382;-54
2021/06/26 11:12:15;;;;;;;6.07;5.57;;;;;;;;;;5035136;28;20030;-58
2021/06/26 11:14:55;;;;;;;6.10;5.68;;;;;;;;;;5034969;28;20026;-59
2021/06/26 11:17:23;;;;;;;6.67;6.17;;;;;;;;;;5035115;28;20032;-59
2021/06/26 11:19:52;;;;;;;8.50;7.78;;;;;;;;;;5034886;28;20854;-59
2021/06/26 11:22:19;;;;;;;6.05;5.65;;;;;;;;;;5034968;28;20428;-58
2021/06/26 11:24:47;;;;;;;6.75;6.25;;;;;;;;;;5035006;28;20021;-59
2021/06/26 11:27:19;;;;;;;5.97;5.45;;;;;;;;;;5034828;28;20022;-59
2021/06/26 11:29:47;;;;;;;6.57;6.07;;;;;;;;;;5034769;28;20040;-59
2021/06/26 11:32:23;;;;;;;5.40;5.00;;;;;;;;;;5034827;28;20576;-58
2021/06/26 11:35:01;;;;;;;5.43;5.03;;;;;;;;;;5034559;28;20038;-59
2021/06/26 11:37:39;;;;;;;5.43;5.03;;;;;;;;;;5034221;28;20428;-59
2021/06/26 11:40:16;;;;;;;5.53;5.03;;;;;;;;;;5034420;28;20103;-59
2021/06/26 11:42:46;;;;;;;5.50;5.10;;;;;;;;;;5034420;28;20368;-59
2021/06/26 11:45:13;;;;;;;5.25;4.93;;;;;;;;;;5034529;28;20048;-58
2021/06/26 11:47:41;;;;;;;5.70;5.30;;;;;;;;;;5034449;28;20092;-59
2021/06/26 11:50:15;;;;;;;5.00;4.60;;;;;;;;;;5034430;28;20017;-59
2021/06/26 11:52:42;;;;;;;6.00;5.60;;;;;;;;;;5034316;28;20025;-61
2021/06/26 11:55:10;;;;;;;5.80;5.38;;;;;;;;;;5034099;28;20574;-60
2021/06/26 11:57:37;;;;;;;6.30;5.80;;;;;;;;;;5034223;28;20468;-60
2021/06/26 12:00:06;;;;;;;7.20;6.70;;;;;;;;;;5033981;28;20056;-59
2021/06/26 12:02:34;;;;;;;6.50;5.90;;;;;;;;;;5034066;28;20032;-59
2021/06/26 12:05:02;;;;;;;6.50;6.10;;;;;;;;;;5034149;28;20026;-60
2021/06/26 12:07:39;;;;;;;6.45;6.05;;;;;;;;;;5033938;28;20018;-59
2021/06/26 12:10:08;;;;;;;6.65;6.20;;;;;;;;;;5034002;28;20056;-60
2021/06/26 12:12:40;;;;;;;6.38;5.97;;;;;;;;;;5033931;28;20028;-59
2021/06/26 12:15:08;;;;;;;6.93;6.43;;;;;;;;;;5034013;28;20045;-60
2021/06/26 12:17:36;;;;;;;6.40;6.00;;;;;;;;;;5034113;28;20394;-59
2021/06/26 12:20:06;;;;;;;6.72;6.32;;;;;;;;;;5033761;28;20040;-60
2021/06/26 12:22:34;;;;;;;6.00;5.60;;;;;;;;;;5033790;28;20371;-60
2021/06/26 12:25:07;;;;;;;6.50;5.90;;;;;;;;;;5033692;28;20154;-59
2021/06/26 12:27:34;;;;;;;6.10;5.50;;;;;;;;;;5033649;28;20029;-60
2021/06/26 12:30:07;;;;;;;6.63;6.13;;;;;;;;;;5033650;28;20223;-59
2021/06/26 12:32:35;;;;;;;6.53;6.03;;;;;;;;;;5033635;28;20103;-60
2021/06/26 12:35:03;;;;;;;6.30;5.90;;;;;;;;;;5033693;28;20538;-60
2021/06/26 12:37:38;;;;;;;6.32;5.93;;;;;;;;;;5033480;28;20034;-60
2021/06/26 12:40:20;;;;;;;6.10;5.70;;;;;;;;;;5033762;28;20504;-59
2021/06/26 12:42:58;;;;;;;6.50;6.10;;;;;;;;;;5033308;28;20107;-60
2021/06/26 12:45:31;;;;;;;6.40;5.95;;;;;;;;;;5033280;28;20025;-59
2021/06/26 12:48:03;;;;;;;6.35;6.00;;;;;;;;;;5032837;28;20037;-59
2021/06/26 12:50:33;;;;;;;5.88;5.57;;;;;;;;;;5033276;28;20466;-59
2021/06/26 12:53:01;;;;;;;5.50;5.20;;;;;;;;;;5033152;28;20034;-57
2021/06/26 12:55:28;;;;;;;5.78;5.47;;;;;;;;;;5032950;28;20056;-59
2021/06/26 12:57:57;;;;;;;5.18;4.97;;;;;;;;;;5033057;28;20068;-60
2021/06/26 13:00:24;;;;;;;5.13;4.90;;;;;;;;;;5033129;28;20505;-59
2021/06/26 13:02:51;;;;;;;4.82;4.50;;;;;;;;;;5033537;28;20013;-60
2021/06/26 13:05:20;;;;;;;5.38;5.07;;;;;;;;;;5033210;28;20091;-60
2021/06/26 13:07:47;;;;;;;5.38;5.07;;;;;;;;;;5032949;28;20491;-59
2021/06/26 13:10:14;;;;;;;5.47;5.18;;;;;;;;;;5033121;28;20037;-59
2021/06/26 13:12:51;;;;;;;5.30;5.00;;;;;;;;;;5033069;28;20025;-60
2021/06/26 13:15:18;;;;;;;4.53;4.32;;;;;;;;;;5033052;28;20053;-60
2021/06/26 13:17:46;;;;;;;4.88;4.60;;;;;;;;;;5032897;28;20022;-60
2021/06/26 13:20:14;;;;;;;4.70;4.50;;;;;;;;;;5032891;28;20022;-60
2021/06/26 13:22:42;;;;;;;5.07;4.78;;;;;;;;;;5032827;28;20022;-59
2021/06/26 13:25:10;;;;;;;5.18;4.85;;;;;;;;;;5031583;28;20022;-59
2021/06/26 13:27:41;;;;;;;5.85;5.45;;;;;;;;;;5032707;28;20109;-59
2021/06/26 13:30:09;;;;;;;4.72;4.53;;;;;;;;;;5033260;28;20018;-59
2021/06/26 13:32:36;;;;;;;4.90;4.70;;;;;;;;;;5032788;28;20494;-59
2021/06/26 13:35:04;;;;;;;6.07;5.75;;;;;;;;;;5032955;28;20044;-59
2021/06/26 13:37:31;;;;;;;6.32;6.03;;;;;;;;;;5032745;28;20021;-59
2021/06/26 13:39:58;;;;;;;5.40;5.20;;;;;;;;;;5032644;28;20133;-59
2021/06/26 13:42:25;;;;;;;6.22;5.90;;;;;;;;;;5032707;28;20024;-59
2021/06/26 13:44:52;;;;;;;6.60;6.28;;;;;;;;;;5032760;28;20030;-60
2021/06/26 13:47:19;;;;;;;6.88;6.50;;;;;;;;;;5031430;28;20079;-60
2021/06/26 13:49:47;;;;;;;6.80;6.50;;;;;;;;;;5032554;28;20478;-60
2021/06/26 13:52:14;;;;;;;6.30;6.00;;;;;;;;;;5032860;28;20048;-59
2021/06/26 13:54:41;;;;;;;6.80;6.40;;;;;;;;;;5032473;28;20050;-59
2021/06/26 13:57:08;;;;;;;6.88;6.57;;;;;;;;;;5032649;28;20033;-59
2021/06/26 13:59:36;;;;;;;6.47;6.18;;;;;;;;;;5034131;28;20022;-58
2021/06/26 14:02:03;;;;;;;6.10;5.80;;;;;;;;;;5035139;28;20025;-59
2021/06/26 14:04:30;;;;;;;7.38;7.07;;;;;;;;;;5036409;28;20106;-60
2021/06/26 14:06:57;;;;;;;6.95;6.55;;;;;;;;;;5036465;28;20030;-59
2021/06/26 14:09:24;;;;;;;6.93;6.53;;;;;;;;;;5036413;28;20363;-60
2021/06/26 14:11:52;;;;;;;7.00;6.70;;;;;;;;;;5036406;28;20018;-59
2021/06/26 14:14:19;;;;;;;6.97;6.60;;;;;;;;;;5036615;28;20022;-60
2021/06/26 14:16:46;;;;;;;6.93;6.60;;;;;;;;;;5036208;28;20022;-60
2021/06/26 14:19:13;;;;;;;6.97;6.57;;;;;;;;;;5036131;28;20029;-59
2021/06/26 14:21:41;;;;;;;6.53;6.22;;;;;;;;;;5036199;28;20474;-60
2021/06/26 14:24:08;;;;;;;6.80;6.50;;;;;;;;;;5036186;28;20022;-60
2021/06/26 14:26:35;;;;;;;6.32;6.03;;;;;;;;;;5036066;28;20393;-60
2021/06/26 14:29:05;;;;;;;6.40;6.00;;;;;;;;;;5036015;28;20021;-59
2021/06/26 14:31:32;;;;;;;6.50;6.10;;;;;;;;;;5035918;28;20541;-59
2021/06/26 14:33:59;;;;;;;5.53;5.30;;;;;;;;;;5036008;28;20060;-58
2021/06/26 14:36:26;;;;;;;5.95;5.65;;;;;;;;;;5035913;28;20045;-59
2021/06/26 14:38:53;;;;;;;5.38;4.97;;;;;;;;;;5036025;28;20029;-59
2021/06/26 14:41:20;;;;;;;5.40;5.00;;;;;;;;;;5035768;28;20032;-58